createdAt,value
2023-03-06T00:00:55.801Z,524.00
2023-03-06T00:04:55.784Z,513.00
2023-03-06T00:08:55.732Z,514.00
2023-03-06T00:12:55.701Z,519.00
2023-03-06T00:16:55.695Z,524.00
2023-03-06T00:20:55.624Z,521.00
2023-03-06T00:24:55.810Z,519.00
2023-03-06T00:28:55.800Z,518.00
2023-03-06T00:32:55.740Z,535.00
2023-03-06T00:36:55.740Z,530.00
2023-03-06T00:40:55.678Z,519.00
2023-03-06T00:44:55.655Z,510.00
2023-03-06T00:48:55.581Z,510.00
2023-03-06T00:52:55.540Z,522.00
2023-03-06T00:56:55.525Z,528.00
2023-03-06T01:00:55.543Z,511.00
2023-03-06T01:04:55.674Z,516.00
2023-03-06T01:08:55.547Z,522.00
2023-03-06T01:12:55.755Z,517.00
2023-03-06T01:16:55.942Z,509.00
2023-03-06T01:20:56.161Z,520.00
2023-03-06T01:24:56.300Z,509.00
2023-03-06T01:28:56.501Z,529.00
2023-03-06T01:32:56.673Z,521.00
2023-03-06T01:36:56.877Z,519.00
2023-03-06T01:40:56.865Z,523.00
2023-03-06T01:44:56.960Z,520.00
2023-03-06T01:48:57.071Z,527.00
2023-03-06T01:52:57.200Z,522.00
2023-03-06T01:56:57.260Z,525.00
2023-03-06T02:00:57.301Z,527.00
2023-03-06T02:04:57.303Z,512.00
2023-03-06T02:08:57.355Z,514.00
2023-03-06T02:12:57.334Z,522.00
2023-03-06T02:16:57.447Z,534.00
2023-03-06T02:20:57.471Z,530.00
2023-03-06T02:24:57.447Z,522.00
2023-03-06T02:28:57.499Z,521.00
2023-03-06T02:32:57.570Z,530.00
2023-03-06T02:36:57.592Z,521.00
2023-03-06T02:40:57.616Z,531.00
2023-03-06T02:44:57.599Z,528.00
2023-03-06T02:48:57.599Z,531.00
2023-03-06T02:52:57.628Z,525.00
2023-03-06T02:56:57.627Z,531.00
2023-03-06T03:00:57.593Z,525.00
2023-03-06T03:04:57.619Z,527.00
2023-03-06T03:08:57.571Z,528.00
2023-03-06T03:12:57.563Z,519.00
2023-03-06T03:16:57.569Z,527.00
2023-03-06T03:20:57.531Z,521.00
2023-03-06T03:24:57.567Z,532.00
2023-03-06T03:28:57.542Z,536.00
2023-03-06T03:32:57.498Z,530.00
2023-03-06T03:36:57.517Z,519.00
2023-03-06T03:40:57.498Z,535.00
2023-03-06T03:44:57.507Z,532.00
2023-03-06T03:48:57.512Z,529.00
2023-03-06T03:52:57.489Z,530.00
2023-03-06T03:56:57.504Z,517.00
2023-03-06T04:00:57.502Z,532.00
2023-03-06T04:04:57.605Z,528.00
2023-03-06T04:08:57.556Z,531.00
2023-03-06T04:12:57.537Z,529.00
2023-03-06T04:16:57.542Z,532.00
2023-03-06T04:20:57.595Z,533.00
2023-03-06T04:24:57.603Z,530.00
2023-03-06T04:28:57.601Z,528.00
2023-03-06T04:32:57.603Z,531.00
2023-03-06T04:36:57.605Z,527.00
2023-03-06T04:40:57.648Z,535.00
2023-03-06T04:44:57.653Z,526.00
2023-03-06T04:48:57.719Z,535.00
2023-03-06T04:52:57.703Z,530.00
2023-03-06T04:56:57.746Z,528.00
2023-03-06T05:00:57.805Z,529.00
2023-03-06T05:04:57.792Z,532.00
2023-03-06T05:08:57.817Z,531.00
2023-03-06T05:12:57.865Z,529.00
2023-03-06T05:16:57.882Z,532.00
2023-03-06T05:20:57.923Z,525.00
2023-03-06T05:24:57.970Z,531.00
2023-03-06T05:28:58.012Z,531.00
2023-03-06T05:32:58.049Z,528.00
2023-03-06T05:36:58.071Z,531.00
2023-03-06T05:40:58.133Z,529.00
2023-03-06T05:44:58.177Z,534.00
2023-03-06T05:48:58.250Z,528.00
2023-03-06T05:52:58.290Z,519.00
2023-03-06T05:56:58.320Z,527.00
2023-03-06T06:00:58.391Z,527.00
2023-03-06T06:04:58.440Z,526.00
2023-03-06T06:08:58.499Z,522.00
2023-03-06T06:12:58.499Z,521.00
2023-03-06T06:16:58.570Z,526.00
2023-03-06T06:20:58.627Z,521.00
2023-03-06T06:24:58.633Z,520.00
2023-03-06T06:29:00.225Z,519.00
2023-03-06T06:32:58.771Z,522.00
2023-03-06T06:36:58.811Z,534.00
2023-03-06T06:41:33.093Z,550.00
2023-03-06T06:44:59.811Z,564.00
2023-03-06T06:48:58.807Z,598.00
2023-03-06T06:52:58.837Z,634.00
2023-03-06T06:56:59.317Z,660.00
2023-03-06T07:00:59.099Z,720.00
2023-03-06T07:05:05.648Z,746.00
2023-03-06T07:09:00.348Z,820.00
2023-03-06T07:12:59.195Z,868.00
2023-03-06T07:16:59.141Z,932.00
2023-03-06T07:21:01.275Z,973.00
2023-03-06T07:24:59.084Z,982.00
2023-03-06T07:28:59.339Z,1033.00
2023-03-06T07:32:59.110Z,1049.00
2023-03-06T07:36:59.340Z,1105.00
2023-03-06T07:40:59.333Z,1123.00
2023-03-06T07:44:59.848Z,1162.00
2023-03-06T07:48:59.737Z,1187.00
2023-03-06T07:52:59.845Z,1182.00
2023-03-06T07:57:00.340Z,1178.00
2023-03-06T08:00:59.967Z,1118.00
2023-03-06T08:04:59.955Z,1086.00
2023-03-06T08:08:59.989Z,1054.00
2023-03-06T08:13:00.374Z,1043.00
2023-03-06T08:17:00.011Z,1014.00
2023-03-06T08:21:00.017Z,1004.00
2023-03-06T08:25:00.360Z,999.00
2023-03-06T08:29:00.114Z,999.00
2023-03-06T08:33:00.073Z,990.00
2023-03-06T08:37:00.054Z,990.00
2023-03-06T08:41:00.380Z,976.00
2023-03-06T08:45:00.394Z,967.00
2023-03-06T08:49:00.375Z,976.00
2023-03-06T08:53:00.184Z,997.00
2023-03-06T08:57:00.247Z,971.00
2023-03-06T09:01:00.517Z,996.00
2023-03-06T09:05:00.438Z,1035.00
2023-03-06T09:09:00.726Z,1055.00
2023-03-06T09:13:00.624Z,1019.00
2023-03-06T09:17:00.593Z,1024.00
2023-03-06T09:21:00.536Z,1032.00
2023-03-06T09:25:00.507Z,1044.00
2023-03-06T09:29:00.468Z,1058.00
2023-03-06T09:33:00.469Z,1062.00
2023-03-06T09:37:00.914Z,1037.00
2023-03-06T09:41:00.399Z,1063.00
2023-03-06T09:45:00.397Z,1043.00
2023-03-06T09:49:00.378Z,1073.00
2023-03-06T09:53:00.393Z,916.00
2023-03-06T09:57:00.918Z,828.00
2023-03-06T10:01:00.489Z,743.00
2023-03-06T10:05:00.573Z,659.00
2023-03-06T10:09:00.883Z,615.00
2023-03-06T10:13:00.811Z,609.00
2023-03-06T10:17:00.910Z,579.00
2023-03-06T10:21:16.909Z,541.00
2023-03-06T10:25:02.138Z,533.00
2023-03-06T10:29:01.444Z,519.00
2023-03-06T10:33:01.120Z,501.00
2023-03-06T10:37:01.427Z,540.00
2023-03-06T10:41:01.442Z,518.00
2023-03-06T10:45:01.460Z,495.00
2023-03-06T10:49:01.417Z,519.00
2023-03-06T10:53:01.399Z,573.00
2023-03-06T10:57:01.535Z,584.00
2023-03-06T11:01:01.915Z,611.00
2023-03-06T11:05:02.037Z,630.00
2023-03-06T11:09:02.073Z,623.00
2023-03-06T11:13:02.164Z,618.00
2023-03-06T11:17:02.237Z,613.00
2023-03-06T11:21:02.384Z,614.00
2023-03-06T11:25:02.534Z,610.00
2023-03-06T11:29:02.598Z,611.00
2023-03-06T11:33:02.697Z,603.00
2023-03-06T11:37:02.949Z,604.00
2023-03-06T11:41:02.908Z,853.00
2023-03-06T11:45:03.438Z,1222.00
2023-03-06T11:49:03.189Z,1389.00
2023-03-06T11:53:03.450Z,1391.00
2023-03-06T11:57:03.356Z,1475.00
2023-03-06T12:01:03.475Z,1510.00
2023-03-06T12:05:03.699Z,1600.00
2023-03-06T12:09:03.576Z,1634.00
2023-03-06T12:13:03.548Z,1670.00
2023-03-06T12:17:03.622Z,1695.00
2023-03-06T12:21:03.728Z,1755.00
2023-03-06T12:25:03.818Z,1773.00
2023-03-06T12:29:04.624Z,1824.00
2023-03-06T12:33:04.018Z,1866.00
2023-03-06T12:37:04.490Z,1864.00
2023-03-06T12:41:03.937Z,1872.00
2023-03-06T12:45:03.905Z,1855.00
2023-03-06T12:49:03.878Z,1841.00
2023-03-06T12:53:03.853Z,1821.00
2023-03-06T12:57:03.826Z,1840.00
2023-03-06T13:01:04.507Z,1871.00
2023-03-06T13:05:03.764Z,1906.00
2023-03-06T13:09:03.695Z,1917.00
2023-03-06T13:13:03.631Z,1895.00
2023-03-06T13:17:03.627Z,1900.00
2023-03-06T13:21:03.594Z,1891.00
2023-03-06T13:25:08.489Z,1873.00
2023-03-06T13:29:03.495Z,1870.00
2023-03-06T13:33:03.442Z,1875.00
2023-03-06T13:37:03.478Z,1836.00
2023-03-06T13:41:03.452Z,1829.00
2023-03-06T13:45:03.398Z,1793.00
2023-03-06T13:49:03.340Z,1777.00
2023-03-06T13:53:03.299Z,1772.00
2023-03-06T13:57:03.245Z,1736.00
2023-03-06T14:01:03.217Z,1685.00
2023-03-06T14:05:03.277Z,1213.00
2023-03-06T14:09:03.472Z,873.00
2023-03-06T14:13:03.463Z,679.00
2023-03-06T14:17:05.076Z,866.00
2023-03-06T14:21:03.660Z,1020.00
2023-03-06T14:25:03.706Z,1115.00
2023-03-06T14:29:03.823Z,1190.00
2023-03-06T14:33:03.706Z,1279.00
2023-03-06T14:37:03.728Z,1324.00
2023-03-06T14:41:03.660Z,1324.00
2023-03-06T14:45:03.610Z,1317.00
2023-03-06T14:49:03.579Z,1343.00
2023-03-06T14:53:03.543Z,1349.00
2023-03-06T14:57:03.488Z,1330.00
2023-03-06T15:01:03.450Z,1343.00
2023-03-06T15:05:03.514Z,1357.00
2023-03-06T15:09:05.258Z,1303.00
2023-03-06T15:13:03.376Z,1328.00
2023-03-06T15:17:03.560Z,1292.00
2023-03-06T15:21:03.275Z,1294.00
2023-03-06T15:25:03.541Z,1293.00
2023-03-06T15:29:09.320Z,1294.00
2023-03-06T15:33:04.177Z,1276.00
2023-03-06T15:37:03.151Z,1301.00
2023-03-06T15:41:03.172Z,1278.00
2023-03-06T15:45:03.350Z,1291.00
2023-03-06T15:49:03.487Z,1295.00
2023-03-06T15:53:03.636Z,1260.00
2023-03-06T15:57:03.819Z,1271.00
2023-03-06T16:01:04.110Z,1241.00
2023-03-06T16:05:04.101Z,1259.00
2023-03-06T16:09:04.220Z,1243.00
2023-03-06T16:13:04.386Z,1252.00
2023-03-06T16:17:04.559Z,1229.00
2023-03-06T16:21:04.726Z,1223.00
2023-03-06T16:25:04.880Z,1225.00
2023-03-06T16:29:05.043Z,1217.00
2023-03-06T16:33:05.192Z,1207.00
2023-03-06T16:37:05.407Z,1200.00
2023-03-06T16:41:05.528Z,1197.00
2023-03-06T16:45:05.669Z,1197.00
2023-03-06T16:49:05.856Z,1198.00
2023-03-06T16:53:06.048Z,1194.00
2023-03-06T16:57:06.197Z,1185.00
2023-03-06T17:01:06.586Z,1180.00
2023-03-06T17:05:06.620Z,1143.00
2023-03-06T17:09:06.801Z,1128.00
2023-03-06T17:13:06.988Z,1142.00
2023-03-06T17:17:07.122Z,1145.00
2023-03-06T17:21:07.353Z,1104.00
2023-03-06T17:25:07.540Z,1134.00
2023-03-06T17:29:07.749Z,1135.00
2023-03-06T17:33:08.014Z,1140.00
2023-03-06T17:37:08.285Z,1137.00
2023-03-06T17:41:08.199Z,1138.00
2023-03-06T17:45:08.121Z,1097.00
2023-03-06T17:49:08.075Z,1111.00
2023-03-06T17:53:08.073Z,1121.00
2023-03-06T17:57:08.027Z,1101.00
2023-03-06T18:01:07.994Z,1101.00
2023-03-06T18:05:08.015Z,1085.00
2023-03-06T18:09:07.906Z,1042.00
2023-03-06T18:13:07.864Z,1120.00
2023-03-06T18:17:07.932Z,1090.00
2023-03-06T18:21:07.878Z,1052.00
2023-03-06T18:25:07.888Z,1034.00
2023-03-06T18:29:07.816Z,1073.00
2023-03-06T18:33:07.778Z,1080.00
2023-03-06T18:37:07.764Z,1069.00
2023-03-06T18:41:07.727Z,1051.00
2023-03-06T18:45:07.669Z,1039.00
2023-03-06T18:49:07.615Z,1027.00
2023-03-06T18:53:07.592Z,1047.00
2023-03-06T18:57:07.592Z,1066.00
2023-03-06T19:01:07.692Z,1007.00
2023-03-06T19:05:07.800Z,1023.00
2023-03-06T19:09:07.979Z,1020.00
2023-03-06T19:13:08.203Z,1019.00
2023-03-06T19:17:08.432Z,998.00
2023-03-06T19:21:08.659Z,995.00
2023-03-06T19:25:08.602Z,1010.00
2023-03-06T19:29:08.582Z,988.00
2023-03-06T19:33:08.595Z,993.00
2023-03-06T19:37:08.491Z,964.00
2023-03-06T19:41:08.466Z,1010.00
2023-03-06T19:45:08.419Z,989.00
2023-03-06T19:49:08.378Z,961.00
2023-03-06T19:53:08.359Z,1003.00
2023-03-06T19:57:08.325Z,995.00
2023-03-06T20:01:08.307Z,963.00
2023-03-06T20:05:09.378Z,985.00
2023-03-06T20:09:08.237Z,929.00
2023-03-06T20:13:08.163Z,968.00
2023-03-06T20:17:08.138Z,955.00
2023-03-06T20:21:08.130Z,940.00
2023-03-06T20:25:08.054Z,954.00
2023-03-06T20:29:08.021Z,961.00
2023-03-06T20:33:07.978Z,965.00
2023-03-06T20:37:07.952Z,959.00
2023-03-06T20:41:07.898Z,916.00
2023-03-06T20:45:07.950Z,917.00
2023-03-06T20:49:07.815Z,941.00
2023-03-06T20:53:07.839Z,913.00
2023-03-06T20:57:07.771Z,921.00
2023-03-06T21:01:07.693Z,941.00
2023-03-06T21:05:07.744Z,911.00
2023-03-06T21:09:07.684Z,938.00
2023-03-06T21:13:07.601Z,924.00
2023-03-06T21:17:07.551Z,926.00
2023-03-06T21:21:07.530Z,924.00
2023-03-06T21:25:07.474Z,911.00
2023-03-06T21:29:07.457Z,893.00
2023-03-06T21:33:07.430Z,906.00
2023-03-06T21:37:07.392Z,869.00
2023-03-06T21:41:07.357Z,891.00
2023-03-06T21:45:07.359Z,908.00
2023-03-06T21:49:07.351Z,906.00
2023-03-06T21:53:07.367Z,894.00
2023-03-06T21:57:07.437Z,867.00
2023-03-06T22:01:07.365Z,854.00
2023-03-06T22:05:07.397Z,886.00
2023-03-06T22:09:07.400Z,885.00
2023-03-06T22:13:07.416Z,871.00
2023-03-06T22:17:07.391Z,870.00
2023-03-06T22:21:07.420Z,841.00
2023-03-06T22:25:07.443Z,861.00
2023-03-06T22:29:07.422Z,866.00
2023-03-06T22:33:07.401Z,868.00
2023-03-06T22:37:07.404Z,857.00
2023-03-06T22:41:07.392Z,837.00
2023-03-06T22:45:07.433Z,845.00
2023-03-06T22:49:07.432Z,854.00
2023-03-06T22:53:07.466Z,840.00
2023-03-06T22:57:07.483Z,837.00
2023-03-06T23:01:07.565Z,840.00
2023-03-06T23:05:07.521Z,812.00
2023-03-06T23:09:07.551Z,835.00
2023-03-06T23:13:07.583Z,831.00
2023-03-06T23:17:07.614Z,834.00
2023-03-06T23:21:07.634Z,824.00
2023-03-06T23:25:07.696Z,807.00
2023-03-06T23:29:07.700Z,812.00
2023-03-06T23:33:07.712Z,789.00
2023-03-06T23:37:07.740Z,807.00
2023-03-06T23:41:07.759Z,810.00
2023-03-06T23:45:07.795Z,806.00
2023-03-06T23:49:07.812Z,789.00
2023-03-06T23:53:07.866Z,795.00
2023-03-06T23:57:07.845Z,800.00
